SUJOL AGGH-NFFN
Flight info
| Callsign | SUJOL |
|---|---|
| Flight time | N/A |
| Altitude | 37000 |
| Route | HN B452 NN |
| Aircraft | B736/M-SDE2E3FGHIRWXY/LB1 |
Departure
| Time | 2026-04-14 15:05 |
|---|---|
| Airport | Honiara International Airport (AGGH) |
Arrival
| Time | N/A |
|---|---|
| Airport | Nadi International Airport (NFFN) |
| Time | Latitude | Longitude | Altitude | Speed | Heading |
|---|---|---|---|---|---|
| 2026-04-14 14:25 | -9.42841 | 160.04537 | 27 ft | 0 kts | 26° |
| 2026-04-14 14:58 | -9.42840 | 160.04540 | 23 ft | 0 kts | 58° |
| 2026-04-14 14:58 | -9.42842 | 160.04543 | 23 ft | 0 kts | 102° |
| 2026-04-14 14:58 | -9.42846 | 160.04543 | 23 ft | 0 kts | 153° |
| 2026-04-14 14:59 | -9.42853 | 160.04541 | 22 ft | 3 kts | 190° |
| 2026-04-14 14:59 | -9.42890 | 160.04544 | 25 ft | 7 kts | 151° |
| 2026-04-14 14:59 | -9.42889 | 160.04598 | 23 ft | 10 kts | 68° |
| 2026-04-14 14:59 | -9.42902 | 160.04657 | 24 ft | 10 kts | 138° |
| 2026-04-14 15:00 | -9.42961 | 160.04686 | 23 ft | 9 kts | 157° |
| 2026-04-14 15:00 | -9.43020 | 160.04711 | 20 ft | 9 kts | 157° |
| 2026-04-14 15:00 | -9.43078 | 160.04736 | 19 ft | 9 kts | 156° |
| 2026-04-14 15:00 | -9.43085 | 160.04793 | 21 ft | 10 kts | 68° |
| 2026-04-14 15:01 | -9.43055 | 160.04865 | 21 ft | 13 kts | 68° |
| 2026-04-14 15:01 | -9.43018 | 160.04960 | 21 ft | 16 kts | 68° |
| 2026-04-14 15:01 | -9.42971 | 160.05076 | 22 ft | 20 kts | 68° |
| 2026-04-14 15:01 | -9.42917 | 160.05212 | 24 ft | 22 kts | 68° |
| 2026-04-14 15:02 | -9.42859 | 160.05358 | 27 ft | 24 kts | 68° |
| 2026-04-14 15:02 | -9.42792 | 160.05527 | 24 ft | 28 kts | 68° |
| 2026-04-14 15:02 | -9.42718 | 160.05717 | 23 ft | 31 kts | 68° |
| 2026-04-14 15:02 | -9.42635 | 160.05924 | 23 ft | 31 kts | 68° |
| 2026-04-14 15:03 | -9.42555 | 160.06120 | 25 ft | 29 kts | 68° |
| 2026-04-14 15:03 | -9.42506 | 160.06243 | 24 ft | 26 kts | 68° |
| 2026-04-14 15:03 | -9.42463 | 160.06313 | 29 ft | 10 kts | 21° |
| 2026-04-14 15:03 | -9.42447 | 160.06356 | 30 ft | 10 kts | 185° |
| 2026-04-14 15:04 | -9.42472 | 160.06324 | 26 ft | 0 kts | 247° |
| 2026-04-14 15:04 | -9.42472 | 160.06323 | 29 ft | 4 kts | 247° |
| 2026-04-14 15:04 | -9.42521 | 160.06202 | 26 ft | 54 kts | 248° |
| 2026-04-14 15:05 | -9.42758 | 160.05610 | 24 ft | 124 kts | 248° |
| 2026-04-14 15:05 | -9.43131 | 160.04672 | 260 ft | 155 kts | 247° |
| 2026-04-14 15:05 | -9.43519 | 160.03663 | 969 ft | 157 kts | 251° |
| 2026-04-14 15:05 | -9.43687 | 160.02520 | 1482 ft | 169 kts | 263° |
| 2026-04-14 15:06 | -9.43640 | 160.01293 | 1991 ft | 181 kts | 291° |
| 2026-04-14 15:06 | -9.42939 | 160.00278 | 2650 ft | 174 kts | 324° |
| 2026-04-14 15:06 | -9.41906 | 159.99683 | 3290 ft | 168 kts | 349° |
| 2026-04-14 15:06 | -9.40778 | 159.99549 | 3943 ft | 163 kts | 13° |
| 2026-04-14 15:07 | -9.39718 | 159.99870 | 4606 ft | 156 kts | 33° |
| 2026-04-14 15:07 | -9.38884 | 160.00540 | 5225 ft | 153 kts | 53° |
| 2026-04-14 15:07 | -9.38064 | 160.01240 | 5852 ft | 157 kts | 37° |
| 2026-04-14 15:07 | -9.37344 | 160.02037 | 6397 ft | 159 kts | 72° |
| 2026-04-14 15:08 | -9.37356 | 160.03216 | 6653 ft | 186 kts | 108° |
| 2026-04-14 15:08 | -9.38097 | 160.04401 | 6831 ft | 218 kts | 135° |
| 2026-04-14 15:08 | -9.39416 | 160.05306 | 7030 ft | 244 kts | 141° |
| 2026-04-14 15:08 | -9.40872 | 160.06369 | 7246 ft | 271 kts | 140° |
| 2026-04-14 15:09 | -9.42432 | 160.07515 | 7879 ft | 281 kts | 140° |
| 2026-04-14 15:09 | -9.44036 | 160.08678 | 8658 ft | 285 kts | 141° |
| 2026-04-14 15:09 | -9.45638 | 160.09879 | 9465 ft | 287 kts | 134° |
| 2026-04-14 15:09 | -9.46813 | 160.11495 | 10192 ft | 287 kts | 115° |
| 2026-04-14 15:10 | -9.47738 | 160.13376 | 10449 ft | 311 kts | 113° |
| 2026-04-14 15:10 | -9.48675 | 160.15437 | 10715 ft | 330 kts | 112° |
| 2026-04-14 15:10 | -9.49636 | 160.17585 | 11280 ft | 338 kts | 112° |
| 2026-04-14 15:10 | -9.50616 | 160.19763 | 12000 ft | 341 kts | 112° |
| 2026-04-14 15:11 | -9.51612 | 160.21961 | 12737 ft | 345 kts | 112° |
| 2026-04-14 15:11 | -9.52614 | 160.24160 | 13419 ft | 351 kts | 113° |
| 2026-04-14 15:11 | -9.53648 | 160.26417 | 14089 ft | 355 kts | 113° |
| 2026-04-14 15:11 | -9.54694 | 160.28696 | 14760 ft | 358 kts | 113° |
| 2026-04-14 15:12 | -9.55750 | 160.30991 | 15453 ft | 361 kts | 113° |
| 2026-04-14 15:12 | -9.56817 | 160.33306 | 16125 ft | 364 kts | 113° |
| 2026-04-14 15:12 | -9.57895 | 160.35645 | 16785 ft | 368 kts | 113° |
| 2026-04-14 15:12 | -9.58984 | 160.38009 | 17449 ft | 372 kts | 113° |
| 2026-04-14 15:13 | -9.60083 | 160.40395 | 18091 ft | 375 kts | 113° |
| 2026-04-14 15:13 | -9.61192 | 160.42802 | 18653 ft | 379 kts | 113° |
| 2026-04-14 15:13 | -9.62309 | 160.45228 | 19237 ft | 381 kts | 113° |
| 2026-04-14 15:13 | -9.63435 | 160.47675 | 19813 ft | 383 kts | 113° |
| 2026-04-14 15:14 | -9.64565 | 160.50130 | 20371 ft | 386 kts | 113° |
| 2026-04-14 15:14 | -9.65705 | 160.52607 | 20936 ft | 389 kts | 113° |
| 2026-04-14 15:14 | -9.66839 | 160.55070 | 21479 ft | 392 kts | 113° |
| 2026-04-14 15:14 | -9.67996 | 160.57588 | 22013 ft | 395 kts | 113° |
| 2026-04-14 15:15 | -9.69162 | 160.60122 | 22543 ft | 398 kts | 113° |
| 2026-04-14 15:15 | -9.70334 | 160.62672 | 23077 ft | 401 kts | 113° |
| 2026-04-14 15:15 | -9.71515 | 160.65242 | 23577 ft | 403 kts | 113° |
| 2026-04-14 15:15 | -9.72706 | 160.67832 | 24003 ft | 406 kts | 113° |
| 2026-04-14 15:16 | -9.73903 | 160.70439 | 24439 ft | 408 kts | 113° |
| 2026-04-14 15:16 | -9.75108 | 160.73061 | 24857 ft | 410 kts | 113° |
| 2026-04-14 15:16 | -9.76315 | 160.75690 | 25272 ft | 412 kts | 113° |
| 2026-04-14 15:16 | -9.77528 | 160.78334 | 25663 ft | 415 kts | 113° |
| 2026-04-14 15:17 | -9.78748 | 160.80990 | 26062 ft | 417 kts | 113° |
| 2026-04-14 15:17 | -9.79958 | 160.83628 | 26455 ft | 419 kts | 113° |
| 2026-04-14 15:17 | -9.81189 | 160.86312 | 26828 ft | 421 kts | 113° |
| 2026-04-14 15:17 | -9.82427 | 160.89011 | 27193 ft | 423 kts | 113° |
| 2026-04-14 15:18 | -9.83671 | 160.91726 | 27552 ft | 425 kts | 113° |
| 2026-04-14 15:18 | -9.84923 | 160.94456 | 27909 ft | 427 kts | 113° |
| 2026-04-14 15:18 | -9.86178 | 160.97199 | 28260 ft | 429 kts | 113° |
| 2026-04-14 15:18 | -9.87430 | 160.99950 | 28600 ft | 431 kts | 113° |
| 2026-04-14 15:19 | -9.88691 | 161.02727 | 28935 ft | 433 kts | 113° |
| 2026-04-14 15:19 | -9.89938 | 161.05479 | 29255 ft | 435 kts | 113° |
| 2026-04-14 15:19 | -9.91206 | 161.08274 | 29577 ft | 437 kts | 113° |
| 2026-04-14 15:19 | -9.92479 | 161.11083 | 29883 ft | 439 kts | 113° |
| 2026-04-14 15:20 | -9.93758 | 161.13903 | 30145 ft | 441 kts | 113° |
| 2026-04-14 15:20 | -9.95042 | 161.16736 | 30400 ft | 443 kts | 113° |
| 2026-04-14 15:20 | -9.96330 | 161.19577 | 30680 ft | 443 kts | 113° |
| 2026-04-14 15:20 | -9.97621 | 161.22423 | 31039 ft | 442 kts | 113° |
| 2026-04-14 15:21 | -9.98903 | 161.25253 | 31432 ft | 441 kts | 113° |
| 2026-04-14 15:21 | -10.00169 | 161.28047 | 31816 ft | 440 kts | 113° |
| 2026-04-14 15:21 | -10.01445 | 161.30863 | 32184 ft | 439 kts | 113° |
| 2026-04-14 15:21 | -10.02720 | 161.33681 | 32571 ft | 439 kts | 113° |
| 2026-04-14 15:22 | -10.03994 | 161.36496 | 32973 ft | 438 kts | 113° |
| 2026-04-14 15:22 | -10.05267 | 161.39309 | 33387 ft | 437 kts | 113° |
| 2026-04-14 15:22 | -10.06533 | 161.42109 | 33797 ft | 436 kts | 113° |
| 2026-04-14 15:22 | -10.07799 | 161.44908 | 34157 ft | 436 kts | 113° |
| 2026-04-14 15:23 | -10.09060 | 161.47698 | 34526 ft | 435 kts | 113° |
| 2026-04-14 15:23 | -10.10319 | 161.50482 | 34902 ft | 433 kts | 113° |
| 2026-04-14 15:23 | -10.11578 | 161.53269 | 35254 ft | 433 kts | 113° |
| 2026-04-14 15:23 | -10.12813 | 161.56004 | 35576 ft | 432 kts | 113° |
| 2026-04-14 15:24 | -10.14066 | 161.58778 | 35906 ft | 431 kts | 113° |
| 2026-04-14 15:24 | -10.15313 | 161.61546 | 36221 ft | 431 kts | 113° |
| 2026-04-14 15:24 | -10.16559 | 161.64316 | 36514 ft | 430 kts | 113° |
| 2026-04-14 15:24 | -10.17798 | 161.67072 | 36821 ft | 430 kts | 113° |
| 2026-04-14 15:25 | -10.20297 | 161.72637 | 36910 ft | 435 kts | 113° |
| 2026-04-14 15:25 | -10.22787 | 161.78181 | 36901 ft | 430 kts | 113° |
| 2026-04-14 15:26 | -10.25261 | 161.83690 | 36905 ft | 427 kts | 113° |
| 2026-04-14 15:26 | -10.27722 | 161.89176 | 36909 ft | 427 kts | 113° |
| 2026-04-14 15:27 | -10.30182 | 161.94663 | 36909 ft | 427 kts | 113° |
| 2026-04-14 15:27 | -10.32645 | 162.00157 | 36911 ft | 427 kts | 113° |
| 2026-04-14 15:28 | -10.35093 | 162.05622 | 36911 ft | 427 kts | 113° |
| 2026-04-14 15:28 | -10.37557 | 162.11125 | 36911 ft | 428 kts | 113° |
| 2026-04-14 15:29 | -10.40024 | 162.16638 | 36912 ft | 429 kts | 113° |
| 2026-04-14 15:29 | -10.42496 | 162.22165 | 36909 ft | 429 kts | 113° |
| 2026-04-14 15:30 | -10.44951 | 162.27658 | 36911 ft | 430 kts | 113° |
| 2026-04-14 15:30 | -10.47422 | 162.33189 | 36911 ft | 430 kts | 113° |
| 2026-04-14 15:31 | -10.49901 | 162.38741 | 36906 ft | 431 kts | 113° |
| 2026-04-14 15:31 | -10.52377 | 162.44289 | 36908 ft | 431 kts | 113° |
| 2026-04-14 15:32 | -10.54851 | 162.49836 | 36907 ft | 431 kts | 113° |
| 2026-04-14 15:32 | -10.57307 | 162.55345 | 36906 ft | 431 kts | 113° |
| 2026-04-14 15:33 | -10.59782 | 162.60900 | 36905 ft | 431 kts | 113° |
| 2026-04-14 15:33 | -10.62251 | 162.66445 | 36905 ft | 430 kts | 113° |
| 2026-04-14 15:34 | -10.64722 | 162.71998 | 36908 ft | 430 kts | 113° |
| 2026-04-14 15:34 | -10.67172 | 162.77505 | 36908 ft | 430 kts | 113° |
| 2026-04-14 15:35 | -10.69632 | 162.83040 | 36907 ft | 430 kts | 113° |
| 2026-04-14 15:35 | -10.72099 | 162.88591 | 36906 ft | 429 kts | 113° |
| 2026-04-14 15:36 | -10.74559 | 162.94132 | 36904 ft | 429 kts | 113° |
| 2026-04-14 15:36 | -10.77018 | 162.99672 | 36909 ft | 429 kts | 113° |
| 2026-04-14 15:37 | -10.79471 | 163.05203 | 36905 ft | 429 kts | 113° |
| 2026-04-14 15:37 | -10.81927 | 163.10743 | 36908 ft | 429 kts | 113° |
| 2026-04-14 15:38 | -10.84363 | 163.16242 | 36909 ft | 429 kts | 113° |
| 2026-04-14 15:38 | -10.86817 | 163.21782 | 36909 ft | 429 kts | 113° |
| 2026-04-14 15:39 | -10.89271 | 163.27329 | 36907 ft | 429 kts | 113° |
| 2026-04-14 15:39 | -10.91720 | 163.32864 | 36909 ft | 429 kts | 113° |
| 2026-04-14 15:40 | -10.94153 | 163.38371 | 36912 ft | 429 kts | 113° |
| 2026-04-14 15:40 | -10.96605 | 163.43919 | 36914 ft | 429 kts | 113° |
| 2026-04-14 15:41 | -10.99052 | 163.49462 | 36910 ft | 430 kts | 113° |
| 2026-04-14 15:41 | -11.01501 | 163.55012 | 36908 ft | 430 kts | 113° |
| 2026-04-14 15:42 | -11.03952 | 163.60569 | 36913 ft | 430 kts | 113° |
| 2026-04-14 15:42 | -11.06404 | 163.66132 | 36912 ft | 430 kts | 113° |
| 2026-04-14 15:43 | -11.08840 | 163.71661 | 36911 ft | 430 kts | 113° |
| 2026-04-14 15:43 | -11.11288 | 163.77222 | 36917 ft | 431 kts | 113° |
| 2026-04-14 15:44 | -11.13738 | 163.82790 | 36912 ft | 431 kts | 113° |
| 2026-04-14 15:44 | -11.16188 | 163.88362 | 36913 ft | 431 kts | 113° |
| 2026-04-14 15:45 | -11.18637 | 163.93933 | 36911 ft | 431 kts | 113° |
| 2026-04-14 15:45 | -11.21087 | 163.99511 | 36912 ft | 431 kts | 113° |
| 2026-04-14 15:46 | -11.23534 | 164.05086 | 36914 ft | 431 kts | 113° |
| 2026-04-14 15:46 | -11.25967 | 164.10634 | 36915 ft | 431 kts | 113° |
| 2026-04-14 15:47 | -11.28416 | 164.16219 | 36915 ft | 431 kts | 113° |
| 2026-04-14 15:47 | -11.30862 | 164.21802 | 36914 ft | 431 kts | 113° |
| 2026-04-14 15:48 | -11.33312 | 164.27396 | 36915 ft | 431 kts | 113° |
| 2026-04-14 15:48 | -11.35756 | 164.32979 | 36914 ft | 431 kts | 113° |
| 2026-04-14 15:49 | -11.38200 | 164.38566 | 36911 ft | 431 kts | 113° |
| 2026-04-14 15:49 | -11.40626 | 164.44116 | 36912 ft | 432 kts | 113° |
| 2026-04-14 15:50 | -11.43068 | 164.49706 | 36913 ft | 432 kts | 113° |
| 2026-04-14 15:50 | -11.45513 | 164.55306 | 36915 ft | 432 kts | 113° |
| 2026-04-14 15:51 | -11.47958 | 164.60910 | 36916 ft | 432 kts | 113° |
| 2026-04-14 15:51 | -11.50400 | 164.66510 | 36913 ft | 432 kts | 113° |
| 2026-04-14 15:52 | -11.52825 | 164.72073 | 36911 ft | 432 kts | 113° |
| 2026-04-14 15:52 | -11.55267 | 164.77680 | 36918 ft | 432 kts | 113° |
| 2026-04-14 15:53 | -11.57711 | 164.83296 | 36915 ft | 432 kts | 113° |
| 2026-04-14 15:53 | -11.59739 | 164.87958 | 36919 ft | 433 kts | 113° |
| 2026-04-14 15:54 | -11.63401 | 164.96382 | 36919 ft | 433 kts | 113° |
| 2026-04-14 15:55 | -11.65845 | 165.02007 | 36919 ft | 433 kts | 113° |
| 2026-04-14 15:55 | -11.68269 | 165.07592 | 36918 ft | 433 kts | 113° |
| 2026-04-14 15:56 | -11.70712 | 165.13223 | 36921 ft | 434 kts | 113° |
| 2026-04-14 15:56 | -11.73156 | 165.18861 | 36921 ft | 434 kts | 113° |
| 2026-04-14 15:57 | -11.75185 | 165.23543 | 36917 ft | 434 kts | 113° |